createdAt,value
2022-11-19T00:00:27.858Z,1005.63
2022-11-19T00:01:27.848Z,1005.63
2022-11-19T00:02:27.900Z,1005.67
2022-11-19T00:03:27.830Z,1005.65
2022-11-19T00:04:27.827Z,1005.63
2022-11-19T00:05:27.818Z,1005.64
2022-11-19T00:06:27.818Z,1005.62
2022-11-19T00:07:27.807Z,1005.61
2022-11-19T00:08:27.760Z,1005.61
2022-11-19T00:09:27.772Z,1005.64
2022-11-19T00:10:27.733Z,1005.63
2022-11-19T00:11:27.753Z,1005.63
2022-11-19T00:12:27.774Z,1005.62
2022-11-19T00:13:27.728Z,1005.66
2022-11-19T00:14:27.705Z,1005.66
2022-11-19T00:15:27.699Z,1005.65
2022-11-19T00:16:27.677Z,1005.66
2022-11-19T00:17:27.699Z,1005.71
2022-11-19T00:18:27.662Z,1005.69
2022-11-19T00:19:27.664Z,1005.67
2022-11-19T00:20:27.650Z,1005.73
2022-11-19T00:21:27.656Z,1005.71
2022-11-19T00:22:27.663Z,1005.71
2022-11-19T00:23:27.626Z,1005.68
2022-11-19T00:24:27.601Z,1005.63
2022-11-19T00:25:27.583Z,1005.66
2022-11-19T00:26:27.570Z,1005.68
2022-11-19T00:27:27.606Z,1005.66
2022-11-19T00:28:27.565Z,1005.67
2022-11-19T00:29:27.544Z,1005.69
2022-11-19T00:30:46.959Z,1005.67
2022-11-19T00:31:28.535Z,1005.68
2022-11-19T00:32:27.542Z,1005.66
2022-11-19T00:33:27.504Z,1005.72
2022-11-19T00:34:27.504Z,1005.67
2022-11-19T00:35:27.487Z,1005.70
2022-11-19T00:36:27.483Z,1005.67
2022-11-19T00:37:27.512Z,1005.73
2022-11-19T00:38:27.460Z,1005.81
2022-11-19T00:39:27.448Z,1005.77
2022-11-19T00:40:27.438Z,1005.77
2022-11-19T00:41:27.411Z,1005.76
2022-11-19T00:42:27.444Z,1005.79
2022-11-19T00:43:27.420Z,1005.83
2022-11-19T00:44:29.443Z,1005.82
2022-11-19T00:45:28.391Z,1005.84
2022-11-19T00:46:27.367Z,1005.87
2022-11-19T00:47:27.394Z,1005.90
2022-11-19T00:48:27.338Z,1005.91
2022-11-19T00:49:27.351Z,1005.87
2022-11-19T00:50:27.321Z,1005.89
2022-11-19T00:51:27.327Z,1005.91
2022-11-19T00:52:27.295Z,1005.93
2022-11-19T00:53:27.331Z,1005.90
2022-11-19T00:54:27.283Z,1005.92
2022-11-19T00:55:27.265Z,1005.89
2022-11-19T00:56:27.263Z,1005.89
2022-11-19T00:57:27.249Z,1005.93
2022-11-19T00:58:27.266Z,1005.93
2022-11-19T00:59:27.217Z,1005.94
2022-11-19T01:00:27.223Z,1005.89
2022-11-19T01:01:27.263Z,1005.88
2022-11-19T01:02:27.203Z,1005.95
2022-11-19T01:03:27.232Z,1005.88
2022-11-19T01:04:27.184Z,1005.83
2022-11-19T01:05:27.168Z,1005.87
2022-11-19T01:06:27.133Z,1005.86
2022-11-19T01:07:27.177Z,1005.85
2022-11-19T01:08:27.154Z,1005.90
2022-11-19T01:09:27.145Z,1005.91
2022-11-19T01:10:27.114Z,1005.96
2022-11-19T01:11:27.108Z,1005.96
2022-11-19T01:12:27.093Z,1005.94
2022-11-19T01:13:27.116Z,1005.97
2022-11-19T01:14:27.061Z,1005.94
2022-11-19T01:15:27.067Z,1005.99
2022-11-19T01:16:27.059Z,1005.95
2022-11-19T01:17:27.040Z,1006.01
2022-11-19T01:18:27.073Z,1006.04
2022-11-19T01:19:27.007Z,1005.99
2022-11-19T01:20:27.060Z,1006.02
2022-11-19T01:21:26.979Z,1006.00
2022-11-19T01:22:26.988Z,1005.99
2022-11-19T01:23:27.018Z,1005.99
2022-11-19T01:24:26.979Z,1006.05
2022-11-19T01:25:26.946Z,1006.00
2022-11-19T01:26:26.951Z,1006.07
2022-11-19T01:27:26.924Z,1006.04
2022-11-19T01:28:26.930Z,1006.03
2022-11-19T01:29:26.956Z,1006.01
2022-11-19T01:30:26.895Z,1006.00
2022-11-19T01:31:26.885Z,1006.04
2022-11-19T01:32:26.867Z,1006.05
2022-11-19T01:33:26.863Z,1006.07
2022-11-19T01:34:26.894Z,1006.09
2022-11-19T01:35:26.847Z,1006.06
2022-11-19T01:36:26.830Z,1006.06
2022-11-19T01:37:26.822Z,1006.02
2022-11-19T01:38:26.809Z,1006.01
2022-11-19T01:39:26.823Z,1006.05
2022-11-19T01:40:26.789Z,1006.00
2022-11-19T01:41:26.765Z,1006.01
2022-11-19T01:42:26.766Z,1006.06
2022-11-19T01:43:26.736Z,1006.03
2022-11-19T01:44:26.762Z,1006.03
2022-11-19T01:45:26.709Z,1005.98
2022-11-19T01:46:26.717Z,1005.99
2022-11-19T01:47:27.517Z,1006.01
2022-11-19T01:48:26.711Z,1006.03
2022-11-19T01:49:26.721Z,1006.04
2022-11-19T01:50:26.694Z,1006.04
2022-11-19T01:51:26.663Z,1006.08
2022-11-19T01:52:26.648Z,1006.15
2022-11-19T01:53:26.646Z,1006.11
2022-11-19T01:54:26.699Z,1006.12
2022-11-19T01:55:26.622Z,1006.10
2022-11-19T01:56:26.609Z,1006.16
2022-11-19T01:57:26.603Z,1006.16
2022-11-19T01:58:26.583Z,1006.19
2022-11-19T01:59:26.607Z,1006.13
2022-11-19T02:00:26.573Z,1006.17
2022-11-19T02:01:26.580Z,1006.14
2022-11-19T02:02:26.545Z,1006.16
2022-11-19T02:03:26.519Z,1006.12
2022-11-19T02:04:26.560Z,1006.15
2022-11-19T02:05:26.515Z,1006.16
2022-11-19T02:06:26.499Z,1006.16
2022-11-19T02:07:26.552Z,1006.13
2022-11-19T02:08:26.472Z,1006.19
2022-11-19T02:09:26.513Z,1006.18
2022-11-19T02:10:26.462Z,1006.19
2022-11-19T02:11:26.437Z,1006.19
2022-11-19T02:12:26.433Z,1006.20
2022-11-19T02:13:26.425Z,1006.16
2022-11-19T02:14:26.447Z,1006.20
2022-11-19T02:15:26.400Z,1006.25
2022-11-19T02:16:26.389Z,1006.17
2022-11-19T02:17:26.386Z,1006.24
2022-11-19T02:18:26.354Z,1006.23
2022-11-19T02:19:26.366Z,1006.30
2022-11-19T02:20:26.334Z,1006.27
2022-11-19T02:21:26.325Z,1006.32
2022-11-19T02:22:26.321Z,1006.33
2022-11-19T02:23:26.320Z,1006.37
2022-11-19T02:24:26.310Z,1006.39
2022-11-19T02:25:26.328Z,1006.41
2022-11-19T02:26:26.287Z,1006.42
2022-11-19T02:27:26.264Z,1006.39
2022-11-19T02:28:26.262Z,1006.38
2022-11-19T02:29:26.255Z,1006.40
2022-11-19T02:30:26.271Z,1006.36
2022-11-19T02:31:26.214Z,1006.37
2022-11-19T02:32:26.224Z,1006.34
2022-11-19T02:33:26.202Z,1006.29
2022-11-19T02:34:26.188Z,1006.30
2022-11-19T02:35:26.226Z,1006.35
2022-11-19T02:36:26.187Z,1006.38
2022-11-19T02:37:26.155Z,1006.34
2022-11-19T02:38:26.156Z,1006.39
2022-11-19T02:39:26.138Z,1006.36
2022-11-19T02:40:26.191Z,1006.38
2022-11-19T02:41:26.128Z,1006.39
2022-11-19T02:42:26.102Z,1006.39
2022-11-19T02:43:26.105Z,1006.41
2022-11-19T02:44:26.085Z,1006.44
2022-11-19T02:45:26.087Z,1006.38
2022-11-19T02:46:26.069Z,1006.41
2022-11-19T02:47:26.040Z,1006.38
2022-11-19T02:48:26.043Z,1006.36
2022-11-19T02:49:26.013Z,1006.35
2022-11-19T02:50:26.045Z,1006.34
2022-11-19T02:51:26.007Z,1006.34
2022-11-19T02:52:26.010Z,1006.30
2022-11-19T02:53:25.965Z,1006.31
2022-11-19T02:54:25.986Z,1006.37
2022-11-19T02:55:25.951Z,1006.32
2022-11-19T02:56:25.973Z,1006.33
2022-11-19T02:57:25.928Z,1006.31
2022-11-19T02:58:25.914Z,1006.31
2022-11-19T02:59:25.928Z,1006.33
2022-11-19T03:00:25.913Z,1006.30
2022-11-19T03:01:25.963Z,1006.28
2022-11-19T03:02:25.883Z,1006.32
2022-11-19T03:03:25.884Z,1006.30
2022-11-19T03:04:25.862Z,1006.32
2022-11-19T03:05:25.860Z,1006.29
2022-11-19T03:06:25.873Z,1006.31
2022-11-19T03:07:25.898Z,1006.36
2022-11-19T03:08:25.825Z,1006.32
2022-11-19T03:09:25.783Z,1006.28
2022-11-19T03:10:25.790Z,1006.32
2022-11-19T03:11:25.815Z,1006.31
2022-11-19T03:12:25.781Z,1006.28
2022-11-19T03:13:25.757Z,1006.33
2022-11-19T03:14:25.777Z,1006.30
2022-11-19T03:15:25.748Z,1006.25
2022-11-19T03:16:25.776Z,1006.27
2022-11-19T03:17:25.758Z,1006.28
2022-11-19T03:18:25.730Z,1006.30
2022-11-19T03:19:25.696Z,1006.25
2022-11-19T03:20:25.706Z,1006.30
2022-11-19T03:21:25.724Z,1006.26
2022-11-19T03:22:25.690Z,1006.29
2022-11-19T03:23:25.655Z,1006.27
2022-11-19T03:24:25.645Z,1006.27
2022-11-19T03:25:25.634Z,1006.30
2022-11-19T03:26:25.674Z,1006.30
2022-11-19T03:27:25.632Z,1006.31
2022-11-19T03:28:25.609Z,1006.27
2022-11-19T03:29:25.597Z,1006.36
2022-11-19T03:30:25.589Z,1006.37
2022-11-19T03:31:25.560Z,1006.39
2022-11-19T03:32:25.585Z,1006.35
2022-11-19T03:33:25.555Z,1006.41
2022-11-19T03:34:25.542Z,1006.36
2022-11-19T03:35:25.549Z,1006.44
2022-11-19T03:36:25.528Z,1006.48
2022-11-19T03:37:25.550Z,1006.53
2022-11-19T03:38:25.512Z,1006.52
2022-11-19T03:39:25.486Z,1006.52
2022-11-19T03:40:25.493Z,1006.62
2022-11-19T03:41:25.467Z,1006.61
2022-11-19T03:42:25.495Z,1006.58
2022-11-19T03:43:25.443Z,1006.61
2022-11-19T03:44:25.450Z,1006.60
2022-11-19T03:45:25.419Z,1006.58
2022-11-19T03:46:25.407Z,1006.60
2022-11-19T03:47:25.447Z,1006.61
2022-11-19T03:48:25.379Z,1006.53
2022-11-19T03:49:25.378Z,1006.57
2022-11-19T03:50:25.387Z,1006.58
2022-11-19T03:51:25.361Z,1006.61
2022-11-19T03:52:25.382Z,1006.59
2022-11-19T03:53:25.345Z,1006.61
2022-11-19T03:54:25.331Z,1006.57
2022-11-19T03:55:25.341Z,1006.57
2022-11-19T03:56:25.303Z,1006.58
2022-11-19T03:57:25.331Z,1006.54
2022-11-19T03:58:25.298Z,1006.55
2022-11-19T03:59:29.381Z,1006.59
2022-11-19T04:00:25.262Z,1006.59
2022-11-19T04:01:25.305Z,1006.64
2022-11-19T04:02:25.249Z,1006.57
2022-11-19T04:03:25.265Z,1006.61
2022-11-19T04:04:25.228Z,1006.64
2022-11-19T04:05:25.219Z,1006.64
2022-11-19T04:06:25.204Z,1006.67
2022-11-19T04:07:25.276Z,1006.68
2022-11-19T04:08:25.202Z,1006.68
2022-11-19T04:09:25.153Z,1006.68
2022-11-19T04:10:25.150Z,1006.67
2022-11-19T04:12:24.267Z,1006.73
2022-11-19T04:13:24.272Z,1006.66
2022-11-19T04:14:24.249Z,1006.62
2022-11-19T04:15:24.227Z,1006.66
2022-11-19T04:16:24.220Z,1006.59
2022-11-19T04:17:24.190Z,1006.61
2022-11-19T04:18:24.216Z,1006.66
2022-11-19T04:19:24.174Z,1006.64
2022-11-19T04:20:24.159Z,1006.66
2022-11-19T04:21:24.152Z,1006.63
2022-11-19T04:22:24.146Z,1006.60
2022-11-19T04:23:24.167Z,1006.57
2022-11-19T04:24:24.123Z,1006.61
2022-11-19T04:25:24.135Z,1006.59
2022-11-19T04:26:24.096Z,1006.60
2022-11-19T04:27:24.096Z,1006.61
2022-11-19T04:28:24.084Z,1006.66
2022-11-19T04:29:24.107Z,1006.61
2022-11-19T04:30:24.061Z,1006.64
2022-11-19T04:31:24.043Z,1006.68
2022-11-19T04:32:24.037Z,1006.68
2022-11-19T04:33:24.024Z,1006.73
2022-11-19T04:34:24.038Z,1006.73
2022-11-19T04:35:24.020Z,1006.76
2022-11-19T04:36:23.994Z,1006.79
2022-11-19T04:37:23.964Z,1006.78
2022-11-19T04:38:23.983Z,1006.77
2022-11-19T04:39:24.003Z,1006.78
2022-11-19T04:40:23.957Z,1006.79
2022-11-19T04:41:23.928Z,1006.83
2022-11-19T04:42:23.908Z,1006.79
2022-11-19T04:43:23.903Z,1006.81
2022-11-19T04:44:23.929Z,1006.83
2022-11-19T04:45:23.902Z,1006.81
2022-11-19T04:46:23.895Z,1006.85
2022-11-19T04:47:23.884Z,1006.82
2022-11-19T04:48:23.862Z,1006.82
2022-11-19T04:49:23.879Z,1006.78
2022-11-19T04:50:23.846Z,1006.81
2022-11-19T04:51:23.844Z,1006.77
2022-11-19T04:52:23.825Z,1006.80
2022-11-19T04:53:23.817Z,1006.79
2022-11-19T04:54:23.825Z,1006.75
2022-11-19T04:55:23.782Z,1006.79
2022-11-19T04:56:23.783Z,1006.77
2022-11-19T04:57:23.765Z,1006.77
2022-11-19T04:58:23.762Z,1006.76
2022-11-19T04:59:23.778Z,1006.77
2022-11-19T05:00:23.743Z,1006.79
2022-11-19T05:01:23.851Z,1006.76
2022-11-19T05:02:23.723Z,1006.80
2022-11-19T05:03:23.701Z,1006.83
2022-11-19T05:04:23.693Z,1006.82
2022-11-19T05:05:23.721Z,1006.91
2022-11-19T05:06:23.662Z,1006.87
2022-11-19T05:07:23.725Z,1006.83
2022-11-19T05:08:23.641Z,1006.88
2022-11-19T05:09:23.633Z,1006.86
2022-11-19T05:10:23.662Z,1006.84
2022-11-19T05:11:23.624Z,1006.86
2022-11-19T05:12:23.596Z,1006.90
2022-11-19T05:13:23.601Z,1006.93
2022-11-19T05:14:27.373Z,1006.92
2022-11-19T05:15:24.602Z,1006.90
2022-11-19T05:16:23.566Z,1006.88
2022-11-19T05:17:23.539Z,1006.83
2022-11-19T05:18:23.524Z,1006.84
2022-11-19T05:19:23.511Z,1006.82
2022-11-19T05:20:23.535Z,1006.83
2022-11-19T05:21:23.495Z,1006.86
2022-11-19T05:22:23.525Z,1006.85
2022-11-19T05:23:23.485Z,1006.84
2022-11-19T05:24:23.480Z,1006.84
2022-11-19T05:25:23.488Z,1006.83
2022-11-19T05:26:23.456Z,1006.83
2022-11-19T05:27:23.448Z,1006.79
2022-11-19T05:28:37.651Z,1006.80
2022-11-19T05:29:24.422Z,1006.83
2022-11-19T05:30:23.455Z,1006.83
2022-11-19T05:31:23.381Z,1006.84
2022-11-19T05:32:23.378Z,1006.84
2022-11-19T05:33:23.374Z,1006.85
2022-11-19T05:34:24.132Z,1006.79
2022-11-19T05:35:23.375Z,1006.76
2022-11-19T05:36:23.341Z,1006.83
2022-11-19T05:37:23.333Z,1006.84
2022-11-19T05:38:23.326Z,1006.89
2022-11-19T05:39:23.602Z,1006.91
2022-11-19T05:40:23.334Z,1006.89
2022-11-19T05:41:23.296Z,1006.85
2022-11-19T05:42:23.276Z,1006.91
2022-11-19T05:43:23.274Z,1006.86
2022-11-19T05:44:23.257Z,1006.83
2022-11-19T05:45:23.236Z,1006.82
2022-11-19T05:46:23.277Z,1006.85
2022-11-19T05:47:23.221Z,1006.84
2022-11-19T05:48:23.223Z,1006.82
2022-11-19T05:49:23.194Z,1006.84
2022-11-19T05:50:23.205Z,1006.81
2022-11-19T05:51:23.213Z,1006.84
2022-11-19T05:52:23.173Z,1006.85
2022-11-19T05:53:23.141Z,1006.85
2022-11-19T05:54:23.185Z,1006.89
2022-11-19T05:55:23.127Z,1006.91
2022-11-19T05:56:23.151Z,1006.93
2022-11-19T05:57:23.118Z,1006.92
2022-11-19T05:58:23.128Z,1007.00
2022-11-19T05:59:23.108Z,1007.01
2022-11-19T06:00:23.087Z,1007.04
2022-11-19T06:01:23.099Z,1007.06
2022-11-19T06:02:23.069Z,1007.11
2022-11-19T06:03:23.056Z,1007.06
2022-11-19T06:04:23.028Z,1007.06
2022-11-19T06:05:23.042Z,1007.09
2022-11-19T06:06:23.072Z,1007.08
2022-11-19T06:07:23.029Z,1007.08
2022-11-19T06:08:23.023Z,1007.09
2022-11-19T06:09:22.992Z,1007.14
2022-11-19T06:10:22.985Z,1007.13
2022-11-19T06:11:23.010Z,1007.10
2022-11-19T06:12:22.964Z,1007.14
2022-11-19T06:13:22.930Z,1007.16
2022-11-19T06:14:22.935Z,1007.17
2022-11-19T06:15:22.936Z,1007.17
2022-11-19T06:16:22.938Z,1007.19
2022-11-19T06:17:22.897Z,1007.17
2022-11-19T06:18:22.908Z,1007.15
2022-11-19T06:19:23.092Z,1007.17
2022-11-19T06:20:22.884Z,1007.13
2022-11-19T06:21:22.899Z,1007.16
2022-11-19T06:22:22.850Z,1007.17
2022-11-19T06:23:22.836Z,1007.18
2022-11-19T06:24:22.834Z,1007.17
2022-11-19T06:25:22.809Z,1007.15
2022-11-19T06:26:22.841Z,1007.19
2022-11-19T06:27:22.794Z,1007.14
2022-11-19T06:28:22.810Z,1007.21
2022-11-19T06:29:22.903Z,1007.22
2022-11-19T06:30:22.750Z,1007.27
2022-11-19T06:31:22.779Z,1007.27
2022-11-19T06:32:22.728Z,1007.27
2022-11-19T06:33:22.752Z,1007.33
2022-11-19T06:34:22.724Z,1007.29
2022-11-19T06:35:22.718Z,1007.30
2022-11-19T06:36:24.385Z,1007.27
2022-11-19T06:37:22.693Z,1007.23
2022-11-19T06:38:22.683Z,1007.24
2022-11-19T06:39:23.062Z,1007.22
2022-11-19T06:40:22.665Z,1007.25
2022-11-19T06:41:22.690Z,1007.20
2022-11-19T06:42:22.640Z,1007.18
2022-11-19T06:43:22.612Z,1007.14
2022-11-19T06:44:22.627Z,1007.21
2022-11-19T06:45:22.589Z,1007.19
2022-11-19T06:46:22.633Z,1007.23
2022-11-19T06:47:22.572Z,1007.24
2022-11-19T06:48:22.589Z,1007.20
2022-11-19T06:49:22.746Z,1007.24
2022-11-19T06:50:22.568Z,1007.19
2022-11-19T06:51:22.626Z,1007.19
2022-11-19T06:52:22.546Z,1007.18
2022-11-19T06:53:22.516Z,1007.20
2022-11-19T06:54:22.551Z,1007.18
2022-11-19T06:55:22.505Z,1007.16
2022-11-19T06:56:22.525Z,1007.22
2022-11-19T06:57:22.475Z,1007.20
2022-11-19T06:58:22.449Z,1007.19
2022-11-19T06:59:22.530Z,1007.23
2022-11-19T07:00:22.441Z,1007.21
2022-11-19T07:01:22.489Z,1007.26
2022-11-19T07:02:22.431Z,1007.24
2022-11-19T07:03:22.420Z,1007.27
2022-11-19T07:04:22.409Z,1007.23
2022-11-19T07:05:22.382Z,1007.20
2022-11-19T07:06:22.400Z,1007.25
2022-11-19T07:07:22.405Z,1007.20
2022-11-19T07:08:22.355Z,1007.22
2022-11-19T07:09:22.444Z,1007.25
2022-11-19T07:10:22.341Z,1007.24
2022-11-19T07:11:22.358Z,1007.28
2022-11-19T07:12:22.339Z,1007.29
2022-11-19T07:13:22.306Z,1007.27
2022-11-19T07:14:22.307Z,1007.25
2022-11-19T07:15:22.277Z,1007.29
2022-11-19T07:16:22.260Z,1007.26
2022-11-19T07:17:22.296Z,1007.29
2022-11-19T07:18:22.266Z,1007.31
2022-11-19T07:19:22.610Z,1007.30
2022-11-19T07:20:22.221Z,1007.27
2022-11-19T07:21:22.220Z,1007.22
2022-11-19T07:22:22.249Z,1007.27
2022-11-19T07:23:22.201Z,1007.27
2022-11-19T07:24:22.213Z,1007.20
2022-11-19T07:25:22.187Z,1007.25
2022-11-19T07:26:22.161Z,1007.25
2022-11-19T07:27:22.181Z,1007.21
2022-11-19T07:28:22.140Z,1007.20
2022-11-19T07:29:22.611Z,1007.20
2022-11-19T07:30:22.132Z,1007.21
2022-11-19T07:31:22.124Z,1007.18
2022-11-19T07:32:22.142Z,1007.23
2022-11-19T07:33:22.093Z,1007.21
2022-11-19T07:34:22.091Z,1007.18
2022-11-19T07:35:22.057Z,1007.17
2022-11-19T07:36:22.063Z,1007.19
2022-11-19T07:37:22.087Z,1007.18
2022-11-19T07:38:22.035Z,1007.15
2022-11-19T07:39:22.551Z,1007.13
2022-11-19T07:40:22.051Z,1007.13
2022-11-19T07:41:21.987Z,1007.12
2022-11-19T07:42:22.004Z,1007.12
2022-11-19T07:43:21.956Z,1007.16
2022-11-19T07:44:21.964Z,1007.10
2022-11-19T07:45:21.956Z,1007.10
2022-11-19T07:46:21.943Z,1007.10
2022-11-19T07:47:21.987Z,1007.04
2022-11-19T07:48:21.936Z,1007.02
2022-11-19T07:49:22.276Z,1007.00
2022-11-19T07:50:21.897Z,1006.99
2022-11-19T07:51:21.886Z,1007.01
2022-11-19T07:52:21.903Z,1006.99
2022-11-19T07:53:21.865Z,1006.96
2022-11-19T07:54:21.873Z,1006.95
2022-11-19T07:55:21.844Z,1006.97
2022-11-19T07:56:21.841Z,1006.99
2022-11-19T07:57:25.863Z,1007.00
2022-11-19T07:58:22.808Z,1006.99
2022-11-19T07:59:22.074Z,1006.97
2022-11-19T08:00:21.798Z,1006.97
2022-11-19T08:01:21.821Z,1007.03
2022-11-19T08:02:21.808Z,1006.97
2022-11-19T08:03:21.765Z,1006.93
2022-11-19T08:04:21.744Z,1006.97
2022-11-19T08:05:21.752Z,1006.99
2022-11-19T08:06:21.740Z,1006.99
2022-11-19T08:07:21.806Z,1007.00
2022-11-19T08:08:21.702Z,1006.98
2022-11-19T08:09:22.022Z,1006.98
2022-11-19T08:10:21.692Z,1006.99
2022-11-19T08:11:21.672Z,1006.95
2022-11-19T08:12:21.688Z,1006.94
2022-11-19T08:13:21.634Z,1007.02
2022-11-19T08:14:21.642Z,1006.97
2022-11-19T08:15:21.630Z,1006.98
2022-11-19T08:16:21.605Z,1006.99
2022-11-19T08:17:21.624Z,1006.96
2022-11-19T08:18:21.575Z,1006.95
2022-11-19T08:19:21.888Z,1006.97
2022-11-19T08:20:21.543Z,1007.01
2022-11-19T08:21:21.570Z,1006.96
2022-11-19T08:22:21.561Z,1006.97
2022-11-19T08:23:21.569Z,1007.00
2022-11-19T08:24:21.792Z,1006.99
2022-11-19T08:25:21.521Z,1006.95
2022-11-19T08:26:21.523Z,1007.01
2022-11-19T08:27:21.481Z,1007.03
2022-11-19T08:28:21.495Z,1006.99
2022-11-19T08:29:21.466Z,1007.02
2022-11-19T08:30:21.451Z,1006.99
2022-11-19T08:31:21.447Z,1007.00
2022-11-19T08:32:21.411Z,1006.97
2022-11-19T08:33:21.451Z,1006.96
2022-11-19T08:34:21.845Z,1006.95
2022-11-19T08:35:21.411Z,1006.99
2022-11-19T08:36:21.384Z,1007.02
2022-11-19T08:37:21.384Z,1007.01
2022-11-19T08:38:21.415Z,1007.00
2022-11-19T08:39:21.346Z,1007.06
2022-11-19T08:40:21.352Z,1007.07
2022-11-19T08:41:21.326Z,1007.03
2022-11-19T08:42:21.326Z,1007.00
2022-11-19T08:43:21.352Z,1007.02
2022-11-19T08:44:21.701Z,1006.97
2022-11-19T08:45:21.293Z,1006.98
2022-11-19T08:46:21.293Z,1006.96
2022-11-19T08:47:21.270Z,1006.94
2022-11-19T08:48:21.289Z,1006.97
2022-11-19T08:49:21.248Z,1006.95
2022-11-19T08:50:21.218Z,1006.95
2022-11-19T08:51:21.228Z,1006.97
2022-11-19T08:52:21.207Z,1006.98
2022-11-19T08:53:21.219Z,1006.96
2022-11-19T08:54:21.606Z,1007.04
2022-11-19T08:55:21.166Z,1007.04
2022-11-19T08:56:21.139Z,1007.01
2022-11-19T08:57:21.148Z,1007.05
2022-11-19T08:58:21.154Z,1007.03
2022-11-19T08:59:21.395Z,1007.05
2022-11-19T09:00:21.120Z,1007.09
2022-11-19T09:01:21.159Z,1007.07
2022-11-19T09:02:21.093Z,1007.06
2022-11-19T09:03:21.127Z,1007.09
2022-11-19T09:04:21.341Z,1007.07
2022-11-19T09:05:21.061Z,1007.09
2022-11-19T09:06:21.051Z,1007.06
2022-11-19T09:07:21.110Z,1007.02
2022-11-19T09:08:21.072Z,1007.07
2022-11-19T09:09:21.028Z,1007.12
2022-11-19T09:10:20.994Z,1007.05
2022-11-19T09:11:21.001Z,1007.10
2022-11-19T09:12:20.977Z,1007.05
2022-11-19T09:13:20.984Z,1007.06
2022-11-19T09:14:21.334Z,1007.01
2022-11-19T09:15:20.948Z,1007.03
2022-11-19T09:16:20.940Z,1007.03
2022-11-19T09:17:20.921Z,1007.00
2022-11-19T09:18:20.931Z,1006.98
2022-11-19T09:19:20.941Z,1007.03
2022-11-19T09:20:20.981Z,1007.05
2022-11-19T09:21:20.877Z,1007.06
2022-11-19T09:22:20.880Z,1007.01
2022-11-19T09:23:20.888Z,1007.11
2022-11-19T09:24:21.190Z,1007.06
2022-11-19T09:25:20.861Z,1007.09
2022-11-19T09:26:20.817Z,1007.02
2022-11-19T09:27:20.838Z,1007.03
2022-11-19T09:28:20.783Z,1007.00
2022-11-19T09:29:20.804Z,1007.00
2022-11-19T09:30:20.792Z,1006.99
2022-11-19T09:31:20.755Z,1007.01
2022-11-19T09:32:25.142Z,1007.04
2022-11-19T09:33:20.742Z,1007.02
2022-11-19T09:34:21.115Z,1007.01
2022-11-19T09:35:20.731Z,1007.06
2022-11-19T09:36:20.719Z,1007.07
2022-11-19T09:37:20.701Z,1007.06
2022-11-19T09:38:20.703Z,1007.08
2022-11-19T09:39:20.721Z,1007.10
2022-11-19T09:40:20.805Z,1007.07
2022-11-19T09:41:20.685Z,1007.03
2022-11-19T09:42:20.632Z,1006.97
2022-11-19T09:43:20.643Z,1007.00
2022-11-19T09:44:20.957Z,1007.04
2022-11-19T09:45:20.627Z,1007.10
2022-11-19T09:46:20.624Z,1007.08
2022-11-19T09:47:20.607Z,1007.06
2022-11-19T09:48:20.649Z,1007.03
2022-11-19T09:49:20.627Z,1007.06
2022-11-19T09:50:20.664Z,1007.11
2022-11-19T09:51:20.576Z,1007.09
2022-11-19T09:52:20.537Z,1007.05
2022-11-19T09:53:20.538Z,1007.08
2022-11-19T09:54:20.847Z,1007.05
2022-11-19T09:55:20.510Z,1007.10
2022-11-19T09:56:20.493Z,1007.06
2022-11-19T09:57:20.490Z,1007.06
2022-11-19T09:58:20.476Z,1007.13
2022-11-19T09:59:20.523Z,1007.10
2022-11-19T10:00:20.453Z,1007.08
2022-11-19T10:01:20.451Z,1007.10
2022-11-19T10:02:20.415Z,1007.09
2022-11-19T10:03:20.509Z,1007.07
2022-11-19T10:04:20.661Z,1007.02
2022-11-19T10:05:20.415Z,1007.04
2022-11-19T10:06:20.371Z,1007.06
2022-11-19T10:07:20.415Z,1007.07
2022-11-19T10:08:20.386Z,1007.01
2022-11-19T10:09:20.348Z,1007.00
2022-11-19T10:10:20.469Z,1007.04
2022-11-19T10:11:20.330Z,1006.98
2022-11-19T10:12:20.324Z,1007.02
2022-11-19T10:13:20.322Z,1006.94
2022-11-19T10:14:20.617Z,1006.90
2022-11-19T10:15:20.330Z,1006.92
2022-11-19T10:16:20.296Z,1006.87
2022-11-19T10:17:20.268Z,1006.86
2022-11-19T10:18:20.276Z,1006.84
2022-11-19T10:19:20.277Z,1006.83
2022-11-19T10:20:20.269Z,1006.80
2022-11-19T10:21:20.242Z,1006.84
2022-11-19T10:22:20.191Z,1006.79
2022-11-19T10:23:20.212Z,1006.79
2022-11-19T10:24:20.350Z,1006.78
2022-11-19T10:25:20.209Z,1006.86
2022-11-19T10:26:20.150Z,1006.83
2022-11-19T10:27:20.161Z,1006.79
2022-11-19T10:28:20.142Z,1006.77
2022-11-19T10:29:20.460Z,1006.79
2022-11-19T10:30:20.146Z,1006.79
2022-11-19T10:31:20.122Z,1006.82
2022-11-19T10:32:20.107Z,1006.79
2022-11-19T10:33:20.088Z,1006.80
2022-11-19T10:34:20.072Z,1006.73
2022-11-19T10:35:20.117Z,1006.74
2022-11-19T10:36:20.068Z,1006.74
2022-11-19T10:37:20.040Z,1006.71
2022-11-19T10:38:20.010Z,1006.71
2022-11-19T10:39:20.155Z,1006.71
2022-11-19T10:40:20.029Z,1006.73
2022-11-19T10:41:19.988Z,1006.73
2022-11-19T10:42:19.970Z,1006.76
2022-11-19T10:43:23.455Z,1006.73
2022-11-19T10:44:20.427Z,1006.70
2022-11-19T10:45:19.993Z,1006.76
2022-11-19T10:46:19.933Z,1006.73
2022-11-19T10:47:19.936Z,1006.72
2022-11-19T10:48:19.920Z,1006.78
2022-11-19T10:49:20.206Z,1006.73
2022-11-19T10:50:19.929Z,1006.78
2022-11-19T10:51:19.882Z,1006.74
2022-11-19T10:52:19.984Z,1006.80
2022-11-19T10:53:19.871Z,1006.73
2022-11-19T10:54:19.851Z,1006.77
2022-11-19T10:55:19.869Z,1006.69
2022-11-19T10:56:19.872Z,1006.76
2022-11-19T10:57:19.825Z,1006.66
2022-11-19T10:58:19.810Z,1006.70
2022-11-19T10:59:20.127Z,1006.64
2022-11-19T11:00:19.800Z,1006.62
2022-11-19T11:01:19.857Z,1006.61
2022-11-19T11:02:22.643Z,1006.62
2022-11-19T11:03:20.740Z,1006.55
2022-11-19T11:04:19.735Z,1006.54
2022-11-19T11:05:19.776Z,1006.52
2022-11-19T11:06:19.762Z,1006.54
2022-11-19T11:07:19.763Z,1006.53
2022-11-19T11:08:19.731Z,1006.50
2022-11-19T11:09:19.806Z,1006.51
2022-11-19T11:10:19.649Z,1006.44
2022-11-19T11:11:19.704Z,1006.44
2022-11-19T11:12:19.643Z,1006.44
2022-11-19T11:13:19.647Z,1006.42
2022-11-19T11:14:19.612Z,1006.45
2022-11-19T11:15:19.628Z,1006.44
2022-11-19T11:16:19.624Z,1006.44
2022-11-19T11:17:19.591Z,1006.45
2022-11-19T11:18:19.571Z,1006.41
2022-11-19T11:19:19.925Z,1006.40
2022-11-19T11:20:19.556Z,1006.35
2022-11-19T11:21:19.589Z,1006.36
2022-11-19T11:22:19.540Z,1006.40
2022-11-19T11:23:19.520Z,1006.34
2022-11-19T11:24:19.530Z,1006.32
2022-11-19T11:25:19.568Z,1006.35
2022-11-19T11:26:19.518Z,1006.33
2022-11-19T11:27:19.473Z,1006.29
2022-11-19T11:28:19.466Z,1006.33
2022-11-19T11:29:19.602Z,1006.26
2022-11-19T11:30:19.439Z,1006.22
2022-11-19T11:31:19.469Z,1006.19
2022-11-19T11:32:19.430Z,1006.19
2022-11-19T11:33:19.409Z,1006.17
2022-11-19T11:34:19.394Z,1006.21
2022-11-19T11:35:19.388Z,1006.16
2022-11-19T11:36:19.408Z,1006.11
2022-11-19T11:37:19.370Z,1006.09
2022-11-19T11:38:19.362Z,1006.08
2022-11-19T11:39:19.765Z,1006.10
2022-11-19T11:40:19.332Z,1006.05
2022-11-19T11:42:03.390Z,1006.07
2022-11-19T11:42:20.312Z,1006.09
2022-11-19T11:43:19.307Z,1006.03
2022-11-19T11:44:19.297Z,1006.03
2022-11-19T11:45:19.281Z,1006.01
2022-11-19T11:46:19.322Z,1005.99
2022-11-19T11:47:19.262Z,1005.99
2022-11-19T11:48:19.250Z,1006.00
2022-11-19T11:49:19.229Z,1006.03
2022-11-19T11:50:19.231Z,1005.99
2022-11-19T11:51:19.250Z,1005.98
2022-11-19T11:52:19.173Z,1005.96
2022-11-19T11:53:19.195Z,1005.96
2022-11-19T11:54:19.181Z,1005.97
2022-11-19T11:55:19.205Z,1005.99
2022-11-19T11:56:19.160Z,1005.93
2022-11-19T11:57:19.218Z,1005.92
2022-11-19T11:58:19.132Z,1005.93
2022-11-19T11:59:19.427Z,1005.90
2022-11-19T12:00:19.101Z,1005.86
2022-11-19T12:01:19.116Z,1005.88
2022-11-19T12:02:19.185Z,1005.87
2022-11-19T12:03:19.107Z,1005.84
2022-11-19T12:04:19.065Z,1005.88
2022-11-19T12:05:19.032Z,1005.81
2022-11-19T12:06:19.053Z,1005.83